createdAt,value
2023-02-23T00:02:07.320Z,29.00
2023-02-23T00:04:35.964Z,25.90
2023-02-23T00:07:02.997Z,26.17
2023-02-23T00:09:35.311Z,29.63
2023-02-23T00:12:07.513Z,26.67
2023-02-23T00:14:37.769Z,31.70
2023-02-23T00:17:10.653Z,25.27
2023-02-23T00:19:37.633Z,27.83
2023-02-23T00:22:04.417Z,27.98
2023-02-23T00:24:31.222Z,32.45
2023-02-23T00:26:58.471Z,27.30
2023-02-23T00:29:25.278Z,29.50
2023-02-23T00:31:52.779Z,27.88
2023-02-23T00:34:21.089Z,30.90
2023-02-23T00:36:54.071Z,31.40
2023-02-23T00:39:21.259Z,25.92
2023-02-23T00:41:49.831Z,30.08
2023-02-23T00:44:16.881Z,32.00
2023-02-23T00:46:45.268Z,30.23
2023-02-23T00:49:13.634Z,23.42
2023-02-23T00:51:40.527Z,29.33
2023-02-23T00:54:08.196Z,26.67
2023-02-23T00:56:35.045Z,29.65
2023-02-23T00:59:02.132Z,24.65
2023-02-23T01:01:29.040Z,25.50
2023-02-23T01:03:55.965Z,25.30
2023-02-23T01:06:23.165Z,25.80
2023-02-23T01:08:56.632Z,27.40
2023-02-23T01:11:28.778Z,22.60
2023-02-23T01:13:58.736Z,25.85
2023-02-23T01:16:31.199Z,24.92
2023-02-23T01:19:01.292Z,27.65
2023-02-23T01:21:32.156Z,25.58
2023-02-23T01:23:59.620Z,26.67
2023-02-23T01:26:30.440Z,22.98
2023-02-23T01:29:08.678Z,24.95
2023-02-23T01:31:38.071Z,27.92
2023-02-23T01:34:06.455Z,26.33
2023-02-23T01:36:36.686Z,26.65
2023-02-23T01:39:07.677Z,25.88
2023-02-23T01:41:36.955Z,23.92
2023-02-23T01:44:28.038Z,28.48
2023-02-23T01:46:54.821Z,27.02
2023-02-23T01:49:29.757Z,25.38
2023-02-23T01:52:11.016Z,22.77
2023-02-23T01:54:51.184Z,24.33
2023-02-23T01:57:22.435Z,25.20
2023-02-23T01:59:52.428Z,26.23
2023-02-23T02:02:23.766Z,23.08
2023-02-23T02:04:52.073Z,23.23
2023-02-23T02:07:24.032Z,23.27
2023-02-23T02:10:22.024Z,24.38
2023-02-23T02:12:57.241Z,23.88
2023-02-23T02:15:29.520Z,24.48
2023-02-23T02:18:24.874Z,24.25
2023-02-23T02:21:43.144Z,27.85
2023-02-23T02:25:01.582Z,25.40
2023-02-23T02:28:17.908Z,20.88
2023-02-23T02:31:41.283Z,24.65
2023-02-23T02:34:32.506Z,24.17
2023-02-23T02:37:56.936Z,22.17
2023-02-23T02:41:03.856Z,25.35
2023-02-23T02:43:50.906Z,29.80
2023-02-23T02:46:22.662Z,27.25
2023-02-23T02:49:18.212Z,29.63
2023-02-23T02:52:27.281Z,29.58
2023-02-23T02:55:01.045Z,35.78
2023-02-23T02:57:29.849Z,34.60
2023-02-23T03:00:17.396Z,32.70
2023-02-23T03:03:03.016Z,34.80
2023-02-23T03:06:07.380Z,30.25
2023-02-23T03:09:44.610Z,36.07
2023-02-23T03:12:55.865Z,33.20
2023-02-23T03:16:18.844Z,38.38
2023-02-23T03:19:16.040Z,32.97
2023-02-23T03:22:17.466Z,35.95
2023-02-23T03:25:16.768Z,39.58
2023-02-23T03:28:24.934Z,38.03
2023-02-23T03:31:57.041Z,41.53
2023-02-23T03:34:54.912Z,37.70
2023-02-23T03:38:02.212Z,40.40
2023-02-23T03:40:54.668Z,40.47
2023-02-23T03:43:54.579Z,43.03
2023-02-23T03:46:40.902Z,44.78
2023-02-23T03:49:29.783Z,44.22
2023-02-23T03:52:24.738Z,42.17
2023-02-23T03:58:05.733Z,39.78
2023-02-23T04:00:58.584Z,43.15
2023-02-23T04:03:45.132Z,42.25
2023-02-23T04:06:33.372Z,47.78
2023-02-23T04:09:23.734Z,44.90
2023-02-23T04:12:43.252Z,44.13
2023-02-23T04:15:17.868Z,43.85
2023-02-23T04:17:44.910Z,41.95
2023-02-23T04:20:14.253Z,51.42
2023-02-23T04:22:41.029Z,50.05
2023-02-23T04:25:08.931Z,49.55
2023-02-23T04:27:36.498Z,52.30
2023-02-23T04:30:04.285Z,47.97
2023-02-23T04:32:31.148Z,49.13
2023-02-23T04:34:57.967Z,48.65
2023-02-23T04:37:24.845Z,49.53
2023-02-23T04:39:51.626Z,53.33
2023-02-23T04:42:19.015Z,53.33
2023-02-23T04:44:46.415Z,54.33
2023-02-23T04:47:15.882Z,45.58
2023-02-23T04:49:43.851Z,53.47
2023-02-23T04:52:10.617Z,50.88
2023-02-23T04:54:41.029Z,54.17
2023-02-23T04:57:08.756Z,48.88
2023-02-23T04:59:36.105Z,48.10
2023-02-23T05:02:03.280Z,46.47
2023-02-23T05:04:30.510Z,49.88
2023-02-23T05:06:57.292Z,52.25
2023-02-23T05:09:24.142Z,56.10
2023-02-23T05:11:50.923Z,53.00
2023-02-23T05:14:17.701Z,53.35
2023-02-23T05:16:44.561Z,53.83
2023-02-23T05:19:11.933Z,53.72
2023-02-23T05:21:38.991Z,56.47
2023-02-23T05:24:06.108Z,54.88
2023-02-23T05:26:32.949Z,58.17
2023-02-23T05:28:59.813Z,59.05
2023-02-23T05:31:27.162Z,55.83
2023-02-23T05:33:54.075Z,65.95
2023-02-23T05:36:21.955Z,59.85
2023-02-23T05:38:49.216Z,59.60
2023-02-23T05:41:22.864Z,60.17
2023-02-23T05:43:53.850Z,58.45
2023-02-23T05:46:26.030Z,58.72
2023-02-23T05:48:59.175Z,61.65
2023-02-23T05:51:28.107Z,66.70
2023-02-23T05:53:54.964Z,60.35
2023-02-23T05:56:22.082Z,62.75
2023-02-23T05:58:57.772Z,63.72
2023-02-23T06:01:25.894Z,63.65
2023-02-23T06:03:52.779Z,66.03
2023-02-23T06:06:20.200Z,61.95
2023-02-23T06:08:47.641Z,60.85
2023-02-23T06:11:14.424Z,61.90
2023-02-23T06:13:41.210Z,62.20
2023-02-23T06:16:08.692Z,65.88
2023-02-23T06:18:35.674Z,69.35
2023-02-23T06:21:03.863Z,65.07
2023-02-23T06:23:32.012Z,70.18
2023-02-23T06:25:59.979Z,61.00
2023-02-23T06:28:28.192Z,62.78
2023-02-23T06:30:55.995Z,61.30
2023-02-23T06:33:23.887Z,61.15
2023-02-23T06:35:50.712Z,65.75
2023-02-23T06:38:17.564Z,59.25
2023-02-23T06:40:44.693Z,59.17
2023-02-23T06:43:11.862Z,61.67
2023-02-23T06:45:39.187Z,56.65
2023-02-23T06:48:06.492Z,63.95
2023-02-23T06:50:33.355Z,59.13
2023-02-23T06:53:00.374Z,64.03
2023-02-23T06:55:27.167Z,59.65
2023-02-23T06:57:54.317Z,57.35
2023-02-23T07:00:21.945Z,60.92
2023-02-23T07:02:48.862Z,61.08
2023-02-23T07:05:16.224Z,64.43
2023-02-23T07:07:43.290Z,63.13
2023-02-23T07:10:11.064Z,56.40
2023-02-23T07:12:38.880Z,59.83
2023-02-23T07:15:06.942Z,57.30
2023-02-23T07:17:33.735Z,56.67
2023-02-23T07:20:00.510Z,51.90
2023-02-23T07:22:30.155Z,60.00
2023-02-23T07:24:57.676Z,59.45
2023-02-23T07:27:25.619Z,59.97
2023-02-23T07:29:52.558Z,62.88
2023-02-23T07:32:19.489Z,60.10
2023-02-23T07:34:47.685Z,59.28
2023-02-23T07:37:14.517Z,60.55
2023-02-23T07:39:41.335Z,56.15
2023-02-23T07:42:08.131Z,58.38
2023-02-23T07:44:34.933Z,57.60
2023-02-23T07:47:01.697Z,58.25
2023-02-23T07:49:28.473Z,65.60
2023-02-23T07:51:55.232Z,63.75
2023-02-23T07:54:22.698Z,62.40
2023-02-23T07:56:49.457Z,59.97
2023-02-23T07:59:17.505Z,61.22
2023-02-23T08:01:44.675Z,62.42
2023-02-23T08:04:11.530Z,59.95
2023-02-23T08:06:38.396Z,59.67
2023-02-23T08:09:05.417Z,63.28
2023-02-23T08:11:32.378Z,58.17
2023-02-23T08:14:00.366Z,59.70
2023-02-23T08:16:33.197Z,63.30
2023-02-23T08:19:01.154Z,53.17
2023-02-23T08:21:29.350Z,57.20
2023-02-23T08:23:57.803Z,60.95
2023-02-23T08:26:25.519Z,57.20
2023-02-23T08:28:53.811Z,57.53
2023-02-23T08:31:23.779Z,55.53
2023-02-23T08:33:52.188Z,56.05
2023-02-23T08:36:20.676Z,52.95
2023-02-23T08:38:48.189Z,54.13
2023-02-23T08:41:15.357Z,53.30
2023-02-23T08:43:42.454Z,55.53
2023-02-23T08:46:11.207Z,50.95
2023-02-23T08:48:40.182Z,49.85
2023-02-23T08:51:08.284Z,53.90
2023-02-23T08:53:35.718Z,44.60
2023-02-23T08:56:06.144Z,50.13
2023-02-23T08:58:34.101Z,49.22
2023-02-23T09:01:01.113Z,45.55
2023-02-23T09:03:30.483Z,47.42
2023-02-23T09:06:05.338Z,45.72
2023-02-23T09:08:32.164Z,45.42
2023-02-23T09:10:58.928Z,47.45
2023-02-23T09:13:25.729Z,46.50
2023-02-23T09:15:52.483Z,46.25
2023-02-23T09:18:19.319Z,46.63
2023-02-23T09:20:46.292Z,42.60
2023-02-23T09:23:13.442Z,45.13
2023-02-23T09:25:44.837Z,44.47
2023-02-23T09:28:14.978Z,47.88
2023-02-23T09:30:44.025Z,45.67
2023-02-23T09:33:11.765Z,46.03
2023-02-23T09:35:39.526Z,46.92
2023-02-23T09:38:07.716Z,41.15
2023-02-23T09:40:49.645Z,43.70
2023-02-23T09:43:45.247Z,47.13
2023-02-23T09:46:29.356Z,44.90
2023-02-23T09:48:59.545Z,47.08
2023-02-23T09:51:26.707Z,51.45
2023-02-23T09:54:02.122Z,47.47
2023-02-23T09:56:46.426Z,58.45
2023-02-23T09:59:19.473Z,55.00
2023-02-23T10:02:05.515Z,56.15
2023-02-23T10:04:43.758Z,54.70
2023-02-23T10:07:39.032Z,56.67
2023-02-23T10:10:36.697Z,57.10
2023-02-23T10:13:31.776Z,60.47
2023-02-23T10:19:06.855Z,57.50
2023-02-23T10:21:41.975Z,60.90
2023-02-23T10:24:22.570Z,55.13
2023-02-23T10:27:10.185Z,55.08
2023-02-23T10:29:55.564Z,58.60
2023-02-23T10:32:49.356Z,54.28
2023-02-23T10:35:20.346Z,60.35
2023-02-23T10:37:52.419Z,63.65
2023-02-23T10:40:24.422Z,59.53
2023-02-23T10:42:53.387Z,59.78
2023-02-23T10:45:24.558Z,66.72
2023-02-23T10:48:00.637Z,56.78
2023-02-23T10:50:29.133Z,60.92
2023-02-23T10:53:04.034Z,61.70
2023-02-23T10:55:32.486Z,61.92
2023-02-23T10:58:19.343Z,63.70
2023-02-23T11:00:58.152Z,67.75
2023-02-23T11:03:57.597Z,63.88
2023-02-23T11:06:40.514Z,60.75
2023-02-23T11:09:44.496Z,54.95
2023-02-23T11:12:29.530Z,61.45
2023-02-23T11:14:58.324Z,58.80
2023-02-23T11:17:37.368Z,61.15
2023-02-23T11:20:26.535Z,72.50
2023-02-23T11:23:03.665Z,64.15
2023-02-23T11:25:37.499Z,63.33
2023-02-23T11:28:04.476Z,62.05
2023-02-23T11:30:38.189Z,58.30
2023-02-23T11:33:11.115Z,58.17
2023-02-23T11:35:38.944Z,48.47
2023-02-23T11:38:28.497Z,43.08
2023-02-23T11:41:17.610Z,42.45
2023-02-23T11:43:57.146Z,44.15
2023-02-23T11:46:25.934Z,41.78
2023-02-23T11:49:09.013Z,42.80
2023-02-23T11:51:41.597Z,45.15
2023-02-23T11:54:25.320Z,44.03
2023-02-23T11:56:54.999Z,45.13
2023-02-23T11:59:29.772Z,46.35
2023-02-23T12:02:05.729Z,39.15
2023-02-23T12:04:41.788Z,37.92
2023-02-23T12:07:41.685Z,36.53
2023-02-23T12:10:16.369Z,36.38
2023-02-23T12:12:53.010Z,36.67
2023-02-23T12:15:27.148Z,37.08
2023-02-23T12:18:03.026Z,33.50
2023-02-23T12:20:36.573Z,30.63
2023-02-23T12:23:10.208Z,33.38
2023-02-23T12:25:54.435Z,28.27
2023-02-23T12:29:20.124Z,31.10
2023-02-23T12:31:54.496Z,30.48
2023-02-23T12:34:49.624Z,31.55
2023-02-23T12:40:23.214Z,25.90
2023-02-23T12:43:17.273Z,27.02
2023-02-23T12:46:02.998Z,31.53
2023-02-23T12:48:48.744Z,27.27
2023-02-23T12:51:34.155Z,34.13
2023-02-23T12:54:01.990Z,35.40
2023-02-23T12:56:45.155Z,31.20
2023-02-23T12:59:35.670Z,33.45
2023-02-23T13:02:41.288Z,29.92
2023-02-23T13:05:29.820Z,30.20
2023-02-23T13:08:23.395Z,29.52
2023-02-23T13:11:05.357Z,32.90
2023-02-23T13:13:48.091Z,34.67
2023-02-23T13:16:34.496Z,30.42
2023-02-23T13:19:27.482Z,33.10
2023-02-23T13:22:21.323Z,29.88
2023-02-23T13:24:49.833Z,30.33
2023-02-23T13:27:42.176Z,31.83
2023-02-23T13:30:13.189Z,32.30
2023-02-23T13:32:40.188Z,33.05
2023-02-23T13:35:20.338Z,29.95
2023-02-23T13:37:58.849Z,31.55
2023-02-23T13:41:17.520Z,33.45
2023-02-23T13:44:17.611Z,32.53
2023-02-23T13:47:16.341Z,34.40
2023-02-23T13:50:14.789Z,32.42
2023-02-23T13:52:44.399Z,31.60
2023-02-23T13:55:26.733Z,32.58
2023-02-23T13:58:06.988Z,30.00
2023-02-23T14:00:34.307Z,28.52
2023-02-23T14:03:06.397Z,33.03
2023-02-23T14:05:43.712Z,35.10
2023-02-23T14:08:32.974Z,36.72
2023-02-23T14:10:59.845Z,32.63
2023-02-23T14:13:31.455Z,30.00
2023-02-23T14:16:19.119Z,34.13
2023-02-23T14:19:05.847Z,31.88
2023-02-23T14:21:58.274Z,35.63
2023-02-23T14:24:27.278Z,36.53
2023-02-23T14:27:40.435Z,36.17
2023-02-23T14:30:11.780Z,30.63
2023-02-23T14:32:42.201Z,33.08
2023-02-23T14:35:40.019Z,33.92
2023-02-23T14:38:31.618Z,33.80
2023-02-23T14:41:03.342Z,39.20
2023-02-23T14:43:38.133Z,34.88
2023-02-23T14:46:13.141Z,39.13
2023-02-23T14:48:44.833Z,35.95
2023-02-23T14:51:33.874Z,38.50
2023-02-23T14:54:01.263Z,38.35
2023-02-23T14:56:42.271Z,40.58
2023-02-23T14:59:23.199Z,38.50
2023-02-23T15:01:51.989Z,43.38
2023-02-23T15:04:27.432Z,40.67
2023-02-23T15:07:01.069Z,45.63
2023-02-23T15:09:42.537Z,51.53
2023-02-23T15:12:18.433Z,49.78
2023-02-23T15:14:48.891Z,44.85
2023-02-23T15:17:23.666Z,42.95
2023-02-23T15:20:16.619Z,44.53
2023-02-23T15:22:52.161Z,43.70
2023-02-23T15:25:26.049Z,45.35
2023-02-23T15:27:53.069Z,44.80
2023-02-23T15:30:31.997Z,50.65
2023-02-23T15:33:14.172Z,51.03
2023-02-23T15:36:18.585Z,49.13
2023-02-23T15:38:51.118Z,41.07
2023-02-23T15:41:34.518Z,45.45
2023-02-23T15:44:20.692Z,45.72
2023-02-23T15:46:54.646Z,39.78
2023-02-23T15:49:24.536Z,44.78
2023-02-23T15:51:59.626Z,46.58
2023-02-23T15:54:52.377Z,51.63
2023-02-23T15:57:32.887Z,44.20
2023-02-23T16:00:09.580Z,47.25
2023-02-23T16:02:37.681Z,47.28
2023-02-23T16:05:25.828Z,46.58
2023-02-23T16:08:22.966Z,41.95
2023-02-23T16:11:02.150Z,36.08
2023-02-23T16:13:29.016Z,43.00
2023-02-23T16:15:56.587Z,38.80
2023-02-23T16:18:35.989Z,34.95
2023-02-23T16:21:04.771Z,38.53
2023-02-23T16:23:44.500Z,33.55
2023-02-23T16:26:19.855Z,29.67
2023-02-23T16:28:47.296Z,27.75
2023-02-23T16:31:25.751Z,27.25
2023-02-23T16:34:01.577Z,31.08
2023-02-23T16:36:39.742Z,31.05
2023-02-23T16:39:12.097Z,30.50
2023-02-23T16:41:39.229Z,27.25
2023-02-23T16:44:07.841Z,32.38
2023-02-23T16:47:03.324Z,32.00
2023-02-23T16:49:30.377Z,36.70
2023-02-23T16:51:58.487Z,33.53
2023-02-23T16:54:25.785Z,36.88
2023-02-23T16:56:55.816Z,28.73
2023-02-23T16:59:23.655Z,35.10
2023-02-23T17:01:50.824Z,29.83
2023-02-23T17:04:19.985Z,32.67
2023-02-23T17:06:52.706Z,34.22
2023-02-23T17:09:19.569Z,38.03
2023-02-23T17:11:47.013Z,48.30
2023-02-23T17:14:27.890Z,50.28
2023-02-23T17:16:54.797Z,54.80
2023-02-23T17:19:22.971Z,63.92
2023-02-23T17:21:51.304Z,72.00
2023-02-23T17:24:18.247Z,71.03
2023-02-23T17:26:45.588Z,74.32
2023-02-23T17:29:12.362Z,83.85
2023-02-23T17:31:40.221Z,84.32
2023-02-23T17:34:07.263Z,79.03
2023-02-23T17:36:34.274Z,78.95
2023-02-23T17:39:01.978Z,82.00
2023-02-23T17:41:28.891Z,86.85
2023-02-23T17:43:55.668Z,87.60
2023-02-23T17:46:23.903Z,84.22
2023-02-23T17:48:50.795Z,81.03
2023-02-23T17:51:19.245Z,85.65
2023-02-23T17:53:46.268Z,81.00
2023-02-23T17:56:13.488Z,76.50
2023-02-23T17:58:40.287Z,90.10
2023-02-23T18:01:07.930Z,77.72
2023-02-23T18:03:36.970Z,88.63
2023-02-23T18:06:06.220Z,89.82
2023-02-23T18:08:34.022Z,87.05
2023-02-23T18:11:01.444Z,93.65
2023-02-23T18:13:29.900Z,95.97
2023-02-23T18:16:02.514Z,85.53
2023-02-23T18:18:30.021Z,92.05
2023-02-23T18:20:59.065Z,94.65
2023-02-23T18:23:30.479Z,89.18
2023-02-23T18:26:24.638Z,91.30
2023-02-23T18:28:51.732Z,94.13
2023-02-23T18:31:25.534Z,89.07
2023-02-23T18:33:52.850Z,99.05
2023-02-23T18:36:27.907Z,94.40
2023-02-23T18:38:57.575Z,89.57
2023-02-23T18:41:24.981Z,94.68
2023-02-23T18:43:51.925Z,97.88
2023-02-23T18:46:19.340Z,91.05
2023-02-23T18:48:50.908Z,99.82
2023-02-23T18:51:19.390Z,90.93
2023-02-23T18:53:46.534Z,97.50
2023-02-23T18:56:25.036Z,95.32
2023-02-23T18:59:01.450Z,95.25
2023-02-23T19:01:33.193Z,97.85
2023-02-23T19:04:02.268Z,93.38
2023-02-23T19:06:29.741Z,99.63
2023-02-23T19:08:59.356Z,97.65
2023-02-23T19:11:30.362Z,93.15
2023-02-23T19:14:00.405Z,92.70
2023-02-23T19:16:30.940Z,100.82
2023-02-23T19:18:59.447Z,96.93
2023-02-23T19:21:26.333Z,94.72
2023-02-23T19:23:57.484Z,97.28
2023-02-23T19:26:25.961Z,96.20
2023-02-23T19:28:53.293Z,97.60
2023-02-23T19:31:22.621Z,90.93
2023-02-23T19:33:50.384Z,94.88
2023-02-23T19:36:21.222Z,89.45
2023-02-23T19:38:48.789Z,90.55
2023-02-23T19:41:19.814Z,81.88
2023-02-23T19:43:47.109Z,56.85
2023-02-23T19:46:17.110Z,40.35
2023-02-23T19:48:48.597Z,38.47
2023-02-23T19:51:15.439Z,24.23
2023-02-23T19:53:42.225Z,25.67
2023-02-23T19:56:12.884Z,23.70
2023-02-23T19:58:44.632Z,18.90
2023-02-23T20:01:16.727Z,21.08
2023-02-23T20:03:45.014Z,23.15
2023-02-23T20:06:15.294Z,16.08
2023-02-23T20:08:44.579Z,22.17
2023-02-23T20:11:12.158Z,24.10
2023-02-23T20:13:40.029Z,26.27
2023-02-23T20:16:10.360Z,20.20
2023-02-23T20:18:39.682Z,22.02
2023-02-23T20:21:13.524Z,15.32
2023-02-23T20:23:41.686Z,28.38
2023-02-23T20:26:14.113Z,26.75
2023-02-23T20:28:41.529Z,23.08
2023-02-23T20:31:13.871Z,21.15
2023-02-23T20:33:41.054Z,25.30
2023-02-23T20:36:08.395Z,18.42
2023-02-23T20:38:35.176Z,25.17
2023-02-23T20:41:04.073Z,18.35
2023-02-23T20:43:31.275Z,16.77
2023-02-23T20:46:00.820Z,23.42
2023-02-23T20:48:32.514Z,18.65
2023-02-23T20:51:01.347Z,26.20
2023-02-23T20:53:29.730Z,20.88
2023-02-23T20:55:56.582Z,21.33
2023-02-23T20:58:28.082Z,26.95
2023-02-23T21:00:58.158Z,30.23
2023-02-23T21:03:25.515Z,26.75
2023-02-23T21:05:52.665Z,22.73
2023-02-23T21:08:20.294Z,19.08
2023-02-23T21:10:48.655Z,32.05
2023-02-23T21:13:17.209Z,25.80
2023-02-23T21:15:45.363Z,25.55
2023-02-23T21:18:12.540Z,23.63
2023-02-23T21:20:40.019Z,31.88
2023-02-23T21:23:07.050Z,30.10
2023-02-23T21:25:33.977Z,22.75
2023-02-23T21:28:01.816Z,19.77
2023-02-23T21:30:29.763Z,30.25
2023-02-23T21:32:59.507Z,24.70
2023-02-23T21:35:26.463Z,27.17
2023-02-23T21:37:53.272Z,29.50
2023-02-23T21:40:21.242Z,25.90
2023-02-23T21:42:48.706Z,22.50
2023-02-23T21:45:17.062Z,24.40
2023-02-23T21:47:45.937Z,25.80
2023-02-23T21:50:37.578Z,25.55
2023-02-23T21:53:04.484Z,18.80
2023-02-23T21:55:31.276Z,24.45
2023-02-23T21:57:58.219Z,28.08
2023-02-23T22:00:25.272Z,29.67
2023-02-23T22:02:52.144Z,23.65
2023-02-23T22:05:20.116Z,20.60
2023-02-23T22:07:54.949Z,22.92
2023-02-23T22:10:24.698Z,26.35
2023-02-23T22:12:56.325Z,16.25
2023-02-23T22:15:27.690Z,21.95
2023-02-23T22:17:55.573Z,23.80
2023-02-23T22:20:22.515Z,28.35
2023-02-23T22:22:50.482Z,16.58
2023-02-23T22:25:19.272Z,31.98
2023-02-23T22:27:47.389Z,28.77
2023-02-23T22:30:15.910Z,28.27
2023-02-23T22:32:43.245Z,21.70
2023-02-23T22:35:10.870Z,26.45
2023-02-23T22:37:38.659Z,19.80
2023-02-23T22:40:13.287Z,20.73
2023-02-23T22:42:40.105Z,20.20
2023-02-23T22:45:07.728Z,22.83
2023-02-23T22:47:35.033Z,21.75
2023-02-23T22:50:02.036Z,22.55
2023-02-23T22:52:29.856Z,26.52
2023-02-23T22:54:56.665Z,23.27
2023-02-23T22:57:23.502Z,24.48
2023-02-23T23:00:00.356Z,20.77
2023-02-23T23:02:32.119Z,21.05
2023-02-23T23:05:01.715Z,26.20
2023-02-23T23:07:30.918Z,19.50
2023-02-23T23:10:02.451Z,21.67
2023-02-23T23:12:29.369Z,22.73
2023-02-23T23:15:01.155Z,24.45
2023-02-23T23:17:30.607Z,17.08
2023-02-23T23:20:00.188Z,22.20
2023-02-23T23:22:27.601Z,22.85
2023-02-23T23:24:54.426Z,22.70
2023-02-23T23:27:21.492Z,18.17
2023-02-23T23:29:49.067Z,21.90
2023-02-23T23:32:18.514Z,25.60
2023-02-23T23:34:48.023Z,14.65
2023-02-23T23:37:19.597Z,15.73
2023-02-23T23:39:46.605Z,21.83
2023-02-23T23:42:13.478Z,23.70
2023-02-23T23:44:40.228Z,26.98
2023-02-23T23:47:07.048Z,28.92
2023-02-23T23:49:39.758Z,26.40
2023-02-23T23:52:07.180Z,27.23
2023-02-23T23:54:38.977Z,20.75
2023-02-23T23:57:06.797Z,27.45
2023-02-23T23:59:35.350Z,34.25
